KFMN/FMN METAR and TAF weather

Enter ICAO airport designator
Station Type Date Time Source
KFMN METAR 2019/04/25 15:53 UTC NOAA

KFMN 251553Z 24005KT 10SM CLR 16/00 A3013 RMK AO2 SLP163 T01610000


Station Type Date Time Source
KFMN Decoded METAR 2019/04/25 15:53 UTC NOAA

FARMINGTON FOUR CORNERS, NM, United States (KFMN) 36-45N 108-14W 1685M
Apr 25, 2019 - 11:53 AM EDT / 2019.04.25 1553 UTC
Wind: from the WSW (240 degrees) at 6 MPH (5 KT):0
Visibility: 10 mile(s):0
Sky conditions: clear
Temperature: 61.0 F (16.1 C)
Dew Point: 32.0 F (0.0 C)
Relative Humidity: 33%
Pressure (altimeter): 30.13 in. Hg (1020 hPa)
ob: KFMN 251553Z 24005KT 10SM CLR 16/00 A3013 RMK AO2 SLP163 T01610000
cycle: 16

Station Type Date Time Source
KFMN TAF 2019/04/25 12:42 UTC NOAA

TAF KFMN 251139Z 2512/2612 VRB06KT P6SM SKC
FM251800 27011KT P6SM SCT200
FM252000 28013G23KT P6SM SCT200
FM260200 31008KT P6SM SCT200
FM260800 08006KT P6SM SCT120

Example: see airport list